Time;durP1;ratioP1;P1;durP2;ratioP2;P2;SDS_P1;SDS_P2;PMS_P1;PMS_P2;Temp;Humidity;BMP_temperature;BMP_pressure;BME280_temperature;BME280_humidity;BME280_pressure;Samples;Min_cycle;Max_cycle;Signal;HPM_P1;HPM_P2
2023/04/05 00:01:54;;;;;;;4.20;3.00;;;0.10;97.60;;;;;;5029890;28;20242;-69
2023/04/05 00:04:22;;;;;;;3.30;3.00;;;0.10;97.60;;;;;;5021790;28;20218;-70
2023/04/05 00:06:51;;;;;;;5.43;3.63;;;0.10;97.70;;;;;;5038454;28;20221;-70
2023/04/05 00:09:20;;;;;;;4.38;3.35;;;0.10;98.00;;;;;;5029011;28;20228;-69
2023/04/05 00:11:47;;;;;;;6.38;3.05;;;0.10;98.00;;;;;;5031095;28;20194;-68
2023/04/05 00:14:14;;;;;;;6.13;3.47;;;0.10;98.10;;;;;;5033088;28;20225;-69
2023/04/05 00:16:41;;;;;;;5.15;3.38;;;0.10;98.10;;;;;;5033281;28;20644;-70
2023/04/05 00:19:09;;;;;;;3.55;2.88;;;0.10;98.20;;;;;;5032923;28;20673;-69
2023/04/05 00:21:38;;;;;;;3.80;3.00;;;0.10;98.10;;;;;;5047087;28;20308;-70
2023/04/05 00:24:05;;;;;;;3.17;2.88;;;0.20;98.10;;;;;;5051343;28;20233;-70
2023/04/05 00:26:33;;;;;;;5.70;3.47;;;0.10;97.90;;;;;;5033024;28;20591;-70
2023/04/05 00:29:00;;;;;;;3.72;3.28;;;0.20;98.00;;;;;;5041570;28;20204;-69
2023/04/05 00:31:26;;;;;;;3.65;3.30;;;0.10;97.90;;;;;;5052833;28;20190;-69
2023/04/05 00:33:53;;;;;;;3.25;2.95;;;0.10;98.30;;;;;;5037074;28;20201;-70
2023/04/05 00:36:20;;;;;;;4.78;3.80;;;0.10;98.50;;;;;;5032796;28;20225;-70
2023/04/05 00:38:48;;;;;;;4.32;2.80;;;0.10;98.30;;;;;;5032794;28;20198;-69
2023/04/05 00:41:15;;;;;;;4.00;3.00;;;0.00;98.40;;;;;;5032584;28;20226;-69
2023/04/05 00:43:43;;;;;;;4.38;3.45;;;0.00;98.30;;;;;;5033005;28;20460;-68
2023/04/05 00:46:10;;;;;;;3.70;3.10;;;0.10;98.50;;;;;;5032822;28;20226;-69
2023/04/05 00:48:37;;;;;;;3.50;3.20;;;0.10;98.50;;;;;;5032443;28;20230;-68
2023/04/05 00:51:08;;;;;;;4.50;4.10;;;0.00;98.30;;;;;;5032583;28;20202;-69
2023/04/05 00:53:35;;;;;;;4.45;4.05;;;0.10;98.20;;;;;;5032674;28;20568;-69
2023/04/05 00:56:02;;;;;;;4.90;3.53;;;0.10;98.30;;;;;;5032278;28;20226;-69
2023/04/05 00:58:29;;;;;;;4.55;3.40;;;0.10;98.30;;;;;;5032042;28;20198;-68
2023/04/05 01:01:05;;;;;;;3.30;3.00;;;0.10;98.20;;;;;;5032808;28;20601;-69
2023/04/05 01:03:35;;;;;;;6.72;3.92;;;0.10;98.30;;;;;;5045290;28;20222;-69
2023/04/05 01:06:16;;;;;;;3.30;3.00;;;0.00;98.30;;;;;;5052223;28;20236;-70
2023/04/05 01:08:50;;;;;;;5.38;3.70;;;0.00;98.40;;;;;;5052268;28;20235;-70
2023/04/05 01:11:18;;;;;;;5.10;3.63;;;0.00;98.50;;;;;;5033074;28;20205;-68
2023/04/05 01:13:46;;;;;;;4.57;3.05;;;0.00;98.50;;;;;;5032454;28;20209;-68
2023/04/05 01:16:14;;;;;;;6.80;2.75;;;-0.10;98.50;;;;;;5050378;28;20220;-69
2023/04/05 01:18:45;;;;;;;6.03;3.58;;;-0.10;98.60;;;;;;5037645;28;20218;-71
2023/04/05 01:21:32;;;;;;;4.60;3.58;;;-0.10;98.60;;;;;;5050285;28;20217;-71
2023/04/05 01:24:13;;;;;;;3.10;2.80;;;-0.10;98.70;;;;;;5050911;28;20201;-69
2023/04/05 01:26:56;;;;;;;4.63;3.50;;;-0.20;98.60;;;;;;5038088;28;20308;-70
2023/04/05 01:29:56;;;;;;;4.10;3.35;;;-0.10;98.60;;;;;;5031282;28;20201;-70
2023/04/05 01:32:42;;;;;;;3.20;3.00;;;-0.20;98.70;;;;;;5051516;28;20223;-70
2023/04/05 01:35:16;;;;;;;4.32;3.15;;;-0.20;98.80;;;;;;5042352;28;20221;-70
2023/04/05 01:37:48;;;;;;;4.65;3.25;;;-0.20;99.00;;;;;;5031771;28;20209;-70
2023/04/05 01:40:15;;;;;;;4.05;3.45;;;-0.20;99.00;;;;;;5031524;28;20210;-70
2023/04/05 01:42:44;;;;;;;5.00;3.35;;;-0.30;98.90;;;;;;5031423;28;20224;-69
2023/04/05 01:45:11;;;;;;;3.90;3.08;;;-0.30;98.90;;;;;;5031539;28;20202;-69
2023/04/05 01:47:39;;;;;;;3.35;3.05;;;-0.30;98.90;;;;;;5044779;28;20231;-70
2023/04/05 01:50:07;;;;;;;4.00;3.17;;;-0.30;98.80;;;;;;5042142;28;20738;-69
2023/04/05 01:52:33;;;;;;;4.70;3.35;;;-0.40;99.00;;;;;;5031344;28;20899;-70
2023/04/05 01:55:00;;;;;;;6.35;3.40;;;-0.40;99.10;;;;;;5031604;28;20198;-72
2023/04/05 01:57:27;;;;;;;5.47;3.63;;;-0.40;99.20;;;;;;5031061;28;20222;-70
2023/04/05 01:59:53;;;;;;;4.88;4.38;;;-0.40;99.50;;;;;;5031061;28;20210;-70
2023/04/05 02:02:20;;;;;;;3.75;3.10;;;-0.40;99.60;;;;;;5030962;28;20217;-69
2023/04/05 02:04:48;;;;;;;3.95;3.35;;;-0.40;99.60;;;;;;5031533;28;20610;-69
2023/04/05 02:07:15;;;;;;;3.40;3.03;;;-0.40;99.70;;;;;;5030771;28;20228;-68
2023/04/05 02:09:41;;;;;;;5.22;3.72;;;-0.40;99.70;;;;;;5031087;28;20209;-69
2023/04/05 02:12:08;;;;;;;2.72;2.50;;;-0.40;99.70;;;;;;5031547;28;20688;-70
2023/04/05 02:14:35;;;;;;;5.80;3.10;;;-0.50;99.70;;;;;;5031265;28;20313;-70
2023/04/05 02:17:02;;;;;;;5.45;3.42;;;-0.60;99.70;;;;;;5031154;28;20221;-69
2023/04/05 02:19:36;;;;;;;4.82;2.92;;;-0.60;99.70;;;;;;5030713;28;20867;-70
2023/04/05 02:22:04;;;;;;;3.42;2.80;;;-0.60;99.60;;;;;;5030702;28;20213;-70
2023/04/05 02:24:30;;;;;;;3.92;2.65;;;-0.60;99.60;;;;;;5030055;28;20200;-70
2023/04/05 02:26:57;;;;;;;3.28;2.90;;;-0.60;99.70;;;;;;5030538;28;20222;-70
2023/04/05 02:29:25;;;;;;;3.75;3.13;;;-0.60;99.80;;;;;;5030300;28;20201;-70
2023/04/05 02:31:52;;;;;;;3.47;3.17;;;-0.70;99.70;;;;;;5030791;28;20198;-71
2023/04/05 02:34:19;;;;;;;3.58;2.83;;;-0.70;99.80;;;;;;5029714;28;20256;-70
2023/04/05 02:36:46;;;;;;;4.30;3.45;;;-0.80;99.70;;;;;;5033335;22;20242;-66
2023/04/05 02:39:14;;;;;;;6.38;3.88;;;-0.80;99.90;;;;;;5010686;28;20202;-66
2023/04/05 02:41:40;;;;;;;4.65;3.20;;;-0.80;99.90;;;;;;5010994;28;20226;-66
2023/04/05 02:44:07;;;;;;;4.30;3.58;;;-0.70;99.90;;;;;;5010770;28;20202;-65
2023/04/05 02:46:34;;;;;;;5.30;3.53;;;-0.70;99.90;;;;;;5010292;28;20222;-65
2023/04/05 02:49:00;;;;;;;4.10;3.70;;;-0.70;99.90;;;;;;5010681;28;20213;-66
2023/04/05 02:51:27;;;;;;;4.00;2.90;;;-0.70;99.90;;;;;;5010736;28;20194;-65
2023/04/05 02:53:54;;;;;;;4.63;3.65;;;-0.80;99.90;;;;;;5010911;28;20549;-66
2023/04/05 02:56:22;;;;;;;4.25;3.70;;;-0.90;99.90;;;;;;5010455;28;20224;-65
2023/04/05 02:58:48;;;;;;;4.13;3.72;;;-0.90;99.90;;;;;;5010437;28;20256;-66
2023/04/05 03:01:16;;;;;;;4.60;4.13;;;-1.00;99.90;;;;;;5010386;28;20206;-66
2023/04/05 03:03:43;;;;;;;4.30;3.22;;;-1.00;99.90;;;;;;5010830;28;20225;-65
2023/04/05 03:06:10;;;;;;;4.63;3.97;;;-1.00;99.90;;;;;;5010326;28;20226;-66
2023/04/05 03:08:37;;;;;;;4.38;3.97;;;-1.00;99.90;;;;;;5010280;28;20202;-65
2023/04/05 03:11:05;;;;;;;4.10;3.35;;;-1.00;99.90;;;;;;5010565;28;20209;-66
2023/04/05 03:13:33;;;;;;;4.25;3.80;;;-1.00;99.90;;;;;;5011020;28;20205;-65
2023/04/05 03:16:00;;;;;;;5.05;3.60;;;-1.00;99.90;;;;;;5010693;28;20226;-66
2023/04/05 03:18:28;;;;;;;9.48;4.05;;;-1.10;99.90;;;;;;5010900;28;20229;-66
2023/04/05 03:20:56;;;;;;;4.72;3.92;;;-1.10;99.90;;;;;;5010936;28;20206;-66
2023/04/05 03:23:25;;;;;;;3.55;3.20;;;-1.10;99.90;;;;;;5009637;28;20238;-65
2023/04/05 03:25:55;;;;;;;3.92;3.45;;;-1.10;99.90;;;;;;5010612;28;20313;-65
2023/04/05 03:28:23;;;;;;;5.53;3.95;;;-1.10;99.90;;;;;;5009805;28;20651;-65
2023/04/05 03:30:51;;;;;;;7.40;4.20;;;-1.20;99.90;;;;;;5009978;28;20240;-64
2023/04/05 03:33:18;;;;;;;4.35;3.38;;;-1.20;99.90;;;;;;4987604;28;20196;-64
2023/04/05 03:35:45;;;;;;;4.15;3.45;;;-1.20;99.90;;;;;;4987883;28;20238;-65
2023/04/05 03:38:12;;;;;;;6.32;3.72;;;-1.20;99.90;;;;;;4986220;28;20757;-65
2023/04/05 03:40:39;;;;;;;4.68;3.33;;;-1.20;99.90;;;;;;4989357;28;20206;-65
2023/04/05 03:43:06;;;;;;;3.45;2.72;;;-1.20;99.90;;;;;;4985463;28;20601;-64
2023/04/05 03:45:33;;;;;;;4.30;3.50;;;-1.30;99.90;;;;;;4990510;28;20687;-65
2023/04/05 03:48:01;;;;;;;3.72;3.42;;;-1.30;99.90;;;;;;4990185;28;20200;-66
2023/04/05 03:50:29;;;;;;;5.57;4.15;;;-1.30;99.90;;;;;;4986082;28;20206;-65
2023/04/05 03:52:55;;;;;;;3.97;3.50;;;-1.40;99.90;;;;;;4984005;28;20645;-65
2023/04/05 03:55:22;;;;;;;5.57;4.22;;;-1.40;99.90;;;;;;4992358;28;20210;-65
2023/04/05 03:57:49;;;;;;;5.63;3.90;;;-1.40;99.90;;;;;;4990887;28;20283;-65
2023/04/05 04:00:16;;;;;;;9.00;4.03;;;-1.50;99.90;;;;;;4994142;28;20219;-65
2023/04/05 04:02:44;;;;;;;4.70;3.85;;;-1.50;99.90;;;;;;4987942;28;20221;-65
2023/04/05 04:05:13;;;;;;;5.80;4.07;;;-1.50;99.90;;;;;;4988353;28;20718;-65
2023/04/05 04:07:41;;;;;;;5.10;4.57;;;-1.50;99.90;;;;;;4986521;28;20222;-65
2023/04/05 04:10:09;;;;;;;4.60;3.92;;;-1.60;99.90;;;;;;4982613;28;20204;-65
2023/04/05 04:12:36;;;;;;;7.82;3.95;;;-1.60;99.90;;;;;;4989252;28;20303;-66
2023/04/05 04:15:03;;;;;;;6.57;5.20;;;-1.70;99.90;;;;;;4988436;28;20207;-66
2023/04/05 04:17:32;;;;;;;4.53;4.13;;;-1.70;99.90;;;;;;4989252;28;20222;-66
2023/04/05 04:19:59;;;;;;;4.53;3.65;;;-1.70;99.90;;;;;;4983999;28;20211;-66
2023/04/05 04:22:31;;;;;;;6.07;5.43;;;-1.70;99.90;;;;;;4979908;28;20460;-66
2023/04/05 04:25:01;;;;;;;9.02;4.65;;;-1.70;99.90;;;;;;4985012;28;20210;-66
2023/04/05 04:27:29;;;;;;;5.18;4.28;;;-1.80;99.90;;;;;;4980838;28;20310;-66
2023/04/05 04:30:00;;;;;;;7.00;4.47;;;-1.80;99.90;;;;;;5012913;28;20202;-66
2023/04/05 04:32:46;;;;;;;4.40;3.72;;;-1.80;99.90;;;;;;5011032;28;20556;-66
2023/04/05 04:35:16;;;;;;;8.80;4.80;;;-1.70;99.90;;;;;;5012756;28;20198;-66
2023/04/05 04:37:46;;;;;;;5.05;4.57;;;-1.70;99.90;;;;;;5012997;28;20670;-66
2023/04/05 04:40:15;;;;;;;4.93;4.03;;;-1.70;99.90;;;;;;5012698;28;20264;-66
2023/04/05 04:42:45;;;;;;;5.43;3.55;;;-1.70;99.90;;;;;;5013077;28;20218;-66
2023/04/05 04:45:14;;;;;;;6.85;3.60;;;-1.70;99.90;;;;;;5013273;28;20203;-65
2023/04/05 04:47:42;;;;;;;5.65;3.72;;;-1.80;99.90;;;;;;5013176;28;20233;-66
2023/04/05 04:50:09;;;;;;;8.15;3.67;;;-1.80;99.90;;;;;;5012846;28;20241;-66
2023/04/05 04:52:36;;;;;;;4.85;4.18;;;-1.80;99.90;;;;;;5013143;28;20194;-66
2023/04/05 04:55:04;;;;;;;6.25;3.97;;;-1.80;99.90;;;;;;5013107;28;20202;-65
2023/04/05 04:57:31;;;;;;;5.32;3.70;;;-1.90;99.90;;;;;;5011845;28;20227;-66
2023/04/05 04:59:58;;;;;;;5.35;3.92;;;-1.90;99.90;;;;;;5012841;28;20211;-66
2023/04/05 05:02:25;;;;;;;5.22;3.45;;;-1.80;99.90;;;;;;5012889;28;20241;-66
2023/04/05 05:04:51;;;;;;;4.97;3.88;;;-1.90;99.90;;;;;;5013034;28;20202;-66
2023/04/05 05:07:19;;;;;;;3.58;3.25;;;-1.90;99.90;;;;;;5012302;28;20335;-67
2023/04/05 05:09:46;;;;;;;4.22;3.80;;;-1.90;99.90;;;;;;5012542;28;20206;-65
2023/04/05 05:12:14;;;;;;;4.50;3.22;;;-1.90;99.90;;;;;;5012510;28;20241;-66
2023/04/05 05:14:41;;;;;;;7.63;3.50;;;-1.90;99.90;;;;;;5013098;28;20202;-66
2023/04/05 05:17:08;;;;;;;7.82;4.20;;;-1.90;99.90;;;;;;5012312;28;20226;-66
2023/04/05 05:19:34;;;;;;;4.00;3.60;;;-1.90;99.90;;;;;;5012332;28;20202;-67
2023/04/05 05:22:01;;;;;;;3.55;3.25;;;-2.00;99.90;;;;;;5012396;28;20202;-66
2023/04/05 05:24:28;;;;;;;3.78;3.35;;;-1.90;99.90;;;;;;5012488;28;20202;-67
2023/04/05 05:26:54;;;;;;;6.05;4.10;;;-2.00;99.90;;;;;;5012440;28;20602;-65
2023/04/05 05:29:22;;;;;;;4.00;3.45;;;-1.90;99.90;;;;;;5011925;28;20207;-66
2023/04/05 05:31:49;;;;;;;5.55;4.38;;;-1.80;99.90;;;;;;5012514;28;20199;-66
2023/04/05 05:34:16;;;;;;;8.60;5.00;;;-1.80;99.90;;;;;;5012591;28;20658;-66
2023/04/05 05:36:43;;;;;;;6.22;3.80;;;-1.80;99.90;;;;;;5011980;28;20225;-66
2023/04/05 05:39:10;;;;;;;7.22;5.07;;;-1.70;99.90;;;;;;5012029;28;20198;-66
2023/04/05 05:41:37;;;;;;;7.13;4.10;;;-1.70;99.90;;;;;;5012661;28;20529;-66
2023/04/05 05:44:04;;;;;;;4.22;3.72;;;-1.60;99.90;;;;;;5012372;28;20226;-65
2023/04/05 05:46:32;;;;;;;8.90;4.72;;;-1.50;99.90;;;;;;5011625;28;20705;-67
2023/04/05 05:48:59;;;;;;;6.25;4.47;;;-1.50;99.90;;;;;;5011924;28;20268;-65
2023/04/05 05:51:26;;;;;;;7.53;4.60;;;-1.40;99.90;;;;;;5011552;28;20274;-66
2023/04/05 05:53:52;;;;;;;7.82;5.30;;;-1.30;99.90;;;;;;5011927;28;20195;-66
2023/04/05 05:56:19;;;;;;;5.15;4.35;;;-1.20;99.90;;;;;;5011349;28;20223;-66
2023/04/05 05:58:46;;;;;;;8.88;4.60;;;-1.10;99.90;;;;;;5011644;28;20244;-65
2023/04/05 06:01:13;;;;;;;5.45;4.85;;;-1.10;99.90;;;;;;5011632;28;20208;-70
2023/04/05 06:03:41;;;;;;;9.23;5.05;;;-1.00;99.90;;;;;;5011853;28;20593;-70
2023/04/05 06:06:10;;;;;;;10.13;5.68;;;-0.90;99.90;;;;;;5011377;28;20214;-70
2023/04/05 06:08:37;;;;;;;8.35;4.38;;;-0.70;99.90;;;;;;5011489;28;20517;-71
2023/04/05 06:11:04;;;;;;;9.98;4.97;;;-0.70;99.90;;;;;;5011662;28;20260;-70
2023/04/05 06:13:31;;;;;;;8.10;5.47;;;-0.60;99.90;;;;;;5011561;28;20602;-72
2023/04/05 06:15:57;;;;;;;5.75;4.15;;;-0.60;99.90;;;;;;5011406;28;20596;-71
2023/04/05 06:18:24;;;;;;;6.95;4.80;;;-0.50;99.90;;;;;;5011012;28;20206;-71
2023/04/05 06:20:55;;;;;;;6.28;5.18;;;-0.40;99.90;;;;;;5011302;28;20210;-71
2023/04/05 06:23:21;;;;;;;9.18;4.90;;;-0.30;99.90;;;;;;5011221;28;20628;-72
2023/04/05 06:25:48;;;;;;;9.05;5.50;;;-0.20;99.90;;;;;;5011453;28;20249;-72
2023/04/05 06:28:15;;;;;;;5.53;4.72;;;-0.10;99.90;;;;;;5011368;28;20198;-73
2023/04/05 06:30:41;;;;;;;5.95;4.70;;;0.10;99.90;;;;;;5011742;28;20206;-70
2023/04/05 06:33:09;;;;;;;5.10;3.70;;;0.20;99.90;;;;;;5011562;28;20566;-72
2023/04/05 06:35:36;;;;;;;5.22;4.28;;;0.30;99.90;;;;;;5010891;28;20226;-72
2023/04/05 06:38:04;;;;;;;6.97;4.45;;;0.40;99.90;;;;;;5011492;28;20198;-72
2023/04/05 06:40:30;;;;;;;5.28;4.10;;;0.60;99.90;;;;;;5011260;28;20289;-70
2023/04/05 06:42:57;;;;;;;7.32;5.15;;;0.70;99.90;;;;;;5011225;28;20225;-69
2023/04/05 06:45:24;;;;;;;7.00;5.05;;;0.80;99.90;;;;;;5010608;28;20209;-71
2023/04/05 06:47:50;;;;;;;5.55;4.35;;;0.90;99.90;;;;;;5010948;28;20202;-70
2023/04/05 06:50:17;;;;;;;4.93;4.50;;;1.00;99.90;;;;;;5010509;28;20252;-71
2023/04/05 06:52:44;;;;;;;5.53;4.50;;;1.10;99.90;;;;;;5010820;28;20252;-73
2023/04/05 06:55:12;;;;;;;8.32;4.85;;;1.20;99.60;;;;;;5010595;28;20206;-71
2023/04/05 06:57:39;;;;;;;6.38;5.22;;;1.30;99.60;;;;;;5010643;28;20241;-70
2023/04/05 07:00:10;;;;;;;5.32;4.10;;;1.30;99.50;;;;;;5010491;28;20226;-69
2023/04/05 07:02:37;;;;;;;5.90;4.32;;;1.30;98.70;;;;;;5010636;28;20225;-72
2023/04/05 07:05:04;;;;;;;4.90;4.10;;;1.40;98.20;;;;;;5010660;28;20206;-71
2023/04/05 07:07:31;;;;;;;4.72;3.90;;;1.50;98.30;;;;;;5010379;28;20300;-70
2023/04/05 07:09:58;;;;;;;4.47;3.88;;;1.60;98.50;;;;;;5010290;28;20205;-73
2023/04/05 07:12:26;;;;;;;6.70;4.60;;;1.70;98.20;;;;;;5010107;28;20205;-72
2023/04/05 07:14:52;;;;;;;5.85;4.60;;;1.80;98.60;;;;;;5010581;28;20633;-72
2023/04/05 07:17:19;;;;;;;5.35;4.68;;;2.00;98.20;;;;;;5010334;28;20214;-73
2023/04/05 07:19:46;;;;;;;4.63;4.03;;;2.10;98.00;;;;;;5010474;28;20213;-73
2023/04/05 07:22:13;;;;;;;7.45;4.75;;;2.20;98.10;;;;;;5010031;28;20206;-71
2023/04/05 07:24:39;;;;;;;5.47;4.97;;;2.40;97.90;;;;;;5010534;28;20222;-72
2023/04/05 07:27:06;;;;;;;5.85;4.18;;;2.60;96.70;;;;;;5010257;28;20226;-73
2023/04/05 07:29:39;;;;;;;6.88;3.78;;;2.60;96.30;;;;;;5010747;28;20206;-71
2023/04/05 07:32:06;;;;;;;7.57;4.90;;;2.70;96.20;;;;;;5010453;28;20294;-73
2023/04/05 07:34:32;;;;;;;4.35;3.95;;;2.80;95.40;;;;;;5010703;28;20205;-73
2023/04/05 07:36:59;;;;;;;4.05;3.65;;;2.80;95.20;;;;;;5010358;28;20230;-72
2023/04/05 07:39:26;;;;;;;4.40;3.67;;;3.00;96.30;;;;;;5010241;28;20252;-73
2023/04/05 07:41:53;;;;;;;4.15;3.70;;;3.10;94.40;;;;;;5010457;28;20205;-72
2023/04/05 07:44:19;;;;;;;4.93;4.53;;;3.30;95.20;;;;;;5010273;28;20724;-71
2023/04/05 07:46:47;;;;;;;4.40;4.00;;;3.60;94.90;;;;;;5010332;28;20226;-71
2023/04/05 07:49:14;;;;;;;4.40;4.00;;;3.90;95.10;;;;;;5009745;28;20198;-70
2023/04/05 07:51:42;;;;;;;4.05;3.65;;;4.30;94.30;;;;;;5010200;28;20226;-66
2023/04/05 07:54:09;;;;;;;6.90;5.20;;;4.70;94.10;;;;;;5010136;28;20527;-66
2023/04/05 07:56:37;;;;;;;5.75;5.20;;;5.20;93.70;;;;;;5009851;28;20222;-72
2023/04/05 07:59:04;;;;;;;5.80;4.97;;;5.70;93.90;;;;;;5010011;28;20202;-72
2023/04/05 08:01:30;;;;;;;6.85;4.68;;;6.10;93.30;;;;;;5010224;28;20209;-72
2023/04/05 08:03:58;;;;;;;7.22;4.18;;;6.10;92.20;;;;;;5010356;28;20218;-74
2023/04/05 08:06:26;;;;;;;4.97;4.32;;;6.10;91.50;;;;;;5009662;28;20226;-72
2023/04/05 08:08:53;;;;;;;4.38;3.95;;;6.30;91.40;;;;;;5010060;28;20301;-73
2023/04/05 08:11:21;;;;;;;5.05;3.75;;;6.80;91.30;;;;;;5010169;28;20198;-73
2023/04/05 08:13:47;;;;;;;6.13;3.90;;;7.20;90.00;;;;;;5010210;28;20195;-73
2023/04/05 08:16:14;;;;;;;5.00;4.00;;;7.50;88.40;;;;;;5009761;28;20238;-73
2023/04/05 08:18:41;;;;;;;4.40;3.63;;;7.90;87.60;;;;;;5009635;28;20213;-73
2023/04/05 08:21:09;;;;;;;4.45;3.80;;;8.50;87.30;;;;;;5010220;28;20631;-72
2023/04/05 08:23:36;;;;;;;4.10;3.80;;;8.80;84.50;;;;;;5010022;28;20226;-74
2023/04/05 08:26:03;;;;;;;4.88;4.38;;;8.90;83.30;;;;;;5009951;28;20226;-73
2023/04/05 08:28:29;;;;;;;4.25;3.75;;;9.30;82.50;;;;;;5009674;28;20211;-74
2023/04/05 08:30:57;;;;;;;4.28;3.88;;;9.90;82.10;;;;;;5009869;28;20198;-73
2023/04/05 08:33:25;;;;;;;4.40;3.97;;;10.50;80.00;;;;;;5011627;28;20256;-74
2023/04/05 08:35:51;;;;;;;4.10;3.63;;;10.60;77.40;;;;;;4997856;28;20226;-74
2023/04/05 08:42:11;;;;;;;5.72;3.50;;;11.40;76.90;;;;;;5048275;28;20620;-90
2023/04/05 08:44:54;;;;;;;5.63;4.00;;;12.60;75.40;;;;;;5051671;28;20247;-91
2023/04/05 08:50:13;;;;;;;4.43;3.80;;;13.90;71.00;;;;;;5057794;28;20178;-91
2023/04/05 08:52:46;;;;;;;4.07;3.50;;;14.30;68.60;;;;;;5058963;28;20457;-94
2023/04/05 08:55:18;;;;;;;4.13;3.70;;;14.50;67.90;;;;;;5059006;28;20449;-92
2023/04/05 08:57:52;;;;;;;5.90;4.23;;;14.40;66.10;;;;;;5060256;23;20593;-73
2023/04/05 09:00:21;;;;;;;4.37;3.97;;;14.40;66.90;;;;;;5033128;28;20460;-72
2023/04/05 09:02:50;;;;;;;4.07;3.73;;;13.80;64.50;;;;;;5037104;28;20463;-70
2023/04/05 09:05:19;;;;;;;5.13;3.50;;;13.70;66.00;;;;;;5046329;28;20484;-71
2023/04/05 09:07:47;;;;;;;3.97;3.63;;;14.00;67.00;;;;;;5042152;28;20472;-69
2023/04/05 09:10:14;;;;;;;7.70;3.40;;;14.00;64.10;;;;;;5034359;28;20460;-71
2023/04/05 09:12:41;;;;;;;2.87;2.67;;;13.70;65.00;;;;;;5041787;28;21025;-71
2023/04/05 09:15:08;;;;;;;3.90;3.50;;;14.40;66.10;;;;;;5040629;28;20456;-71
2023/04/05 09:17:39;;;;;;;3.83;3.50;;;14.60;64.90;;;;;;5036502;28;20483;-71
2023/04/05 09:20:06;;;;;;;3.47;3.10;;;15.00;64.50;;;;;;5033327;28;20551;-70
2023/04/05 09:22:44;;;;;;;3.93;3.57;;;13.90;60.00;;;;;;5032733;28;20464;-70
2023/04/05 09:25:10;;;;;;;4.93;3.47;;;13.70;65.40;;;;;;5033638;28;20479;-73
2023/04/05 09:27:55;;;;;;;4.40;4.00;;;14.70;65.20;;;;;;5050337;28;20483;-70
2023/04/05 09:30:22;;;;;;;3.57;3.10;;;14.70;60.00;;;;;;5052062;28;20498;-70
2023/04/05 09:32:51;;;;;;;3.70;3.20;;;14.40;63.10;;;;;;5036237;28;20467;-72
2023/04/05 09:35:21;;;;;;;3.63;3.33;;;15.00;65.80;;;;;;5038902;28;20745;-69
2023/04/05 09:37:53;;;;;;;4.00;3.70;;;15.40;60.00;;;;;;5033535;28;20474;-70
2023/04/05 09:40:20;;;;;;;3.70;2.97;;;15.40;61.90;;;;;;5033056;28;20460;-73
2023/04/05 09:42:47;;;;;;;4.20;3.50;;;15.80;62.70;;;;;;5044290;28;20840;-70
2023/04/05 09:45:17;;;;;;;3.60;3.30;;;15.80;62.00;;;;;;5051676;28;20484;-71
2023/04/05 09:47:53;;;;;;;3.23;2.93;;;16.30;61.50;;;;;;5052167;28;20463;-71
2023/04/05 09:50:21;;;;;;;3.80;3.50;;;16.90;61.10;;;;;;5044064;28;20489;-70
2023/04/05 09:52:48;;;;;;;3.80;3.50;;;17.00;59.10;;;;;;5043105;28;20470;-73
2023/04/05 09:55:26;;;;;;;4.20;3.83;;;16.90;61.20;;;;;;5033061;28;20499;-70
2023/04/05 09:57:53;;;;;;;3.53;3.23;;;16.50;58.70;;;;;;5052076;28;20463;-70
2023/04/05 10:00:21;;;;;;;3.80;3.50;;;16.70;62.20;;;;;;5045251;28;20460;-69
2023/04/05 10:02:53;;;;;;;4.40;3.30;;;17.70;60.70;;;;;;5042633;28;20494;-70
2023/04/05 10:05:24;;;;;;;3.60;3.30;;;18.00;57.40;;;;;;5052224;28;20479;-71
2023/04/05 10:07:52;;;;;;;3.53;3.20;;;18.30;58.00;;;;;;5051476;28;20950;-69
2023/04/05 10:10:18;;;;;;;3.70;3.40;;;17.80;56.20;;;;;;5046049;28;20514;-68
2023/04/05 10:12:46;;;;;;;3.50;3.20;;;15.80;58.30;;;;;;5031265;28;20997;-69
2023/04/05 10:15:13;;;;;;;3.83;3.43;;;15.80;59.50;;;;;;5037880;28;20462;-66
2023/04/05 10:17:48;;;;;;;4.47;4.07;;;16.30;61.20;;;;;;5051083;28;20982;-66
2023/04/05 10:20:15;;;;;;;6.90;4.20;;;16.30;59.50;;;;;;5042994;28;20463;-67
2023/04/05 10:22:54;;;;;;;6.53;3.80;;;16.80;60.60;;;;;;5051232;28;20904;-68
2023/04/05 10:25:25;;;;;;;3.60;3.10;;;17.60;61.50;;;;;;5035583;28;20484;-69
2023/04/05 10:27:55;;;;;;;4.47;4.07;;;17.90;60.10;;;;;;5030656;28;20496;-68
2023/04/05 10:30:25;;;;;;;3.70;3.37;;;18.10;56.70;;;;;;5037927;28;20459;-68
2023/04/05 10:33:03;;;;;;;4.20;3.80;;;18.80;60.60;;;;;;5050853;28;20971;-68
2023/04/05 10:35:38;;;;;;;4.10;3.70;;;18.90;55.70;;;;;;5050779;28;20455;-69
2023/04/05 10:38:17;;;;;;;3.80;3.47;;;18.20;58.10;;;;;;5051134;28;20466;-66
2023/04/05 10:40:47;;;;;;;4.37;3.97;;;18.30;57.90;;;;;;5049076;28;20467;-65
2023/04/05 10:43:18;;;;;;;4.50;3.60;;;18.10;56.10;;;;;;5045225;28;20487;-67
2023/04/05 10:45:48;;;;;;;4.23;3.73;;;17.50;55.30;;;;;;5050631;28;20475;-67
2023/04/05 10:48:21;;;;;;;4.20;3.80;;;17.00;55.60;;;;;;5050727;28;20495;-67
2023/04/05 10:50:48;;;;;;;4.53;4.13;;;17.50;58.40;;;;;;5033202;28;20471;-67
2023/04/05 10:53:18;;;;;;;4.77;4.00;;;18.00;57.60;;;;;;5044992;28;20472;-66
2023/04/05 10:55:45;;;;;;;4.77;3.80;;;18.20;56.50;;;;;;5050040;28;20487;-67
2023/04/05 10:58:14;;;;;;;4.17;3.80;;;18.90;58.50;;;;;;5044854;28;20499;-65
2023/04/05 11:00:41;;;;;;;3.90;3.60;;;19.90;58.80;;;;;;5030151;28;20464;-67
2023/04/05 11:03:08;;;;;;;4.73;4.23;;;20.50;56.30;;;;;;5031086;28;20829;-67
2023/04/05 11:05:36;;;;;;;4.20;3.47;;;20.20;54.90;;;;;;5039068;28;20490;-66
2023/04/05 11:08:05;;;;;;;4.00;3.60;;;20.20;53.20;;;;;;5051791;28;20455;-67
2023/04/05 11:10:36;;;;;;;4.97;4.43;;;20.30;55.70;;;;;;5050814;28;20504;-67
2023/04/05 11:13:04;;;;;;;4.07;3.67;;;19.60;53.00;;;;;;5050885;28;20501;-67
2023/04/05 11:15:33;;;;;;;4.70;4.20;;;19.20;56.40;;;;;;5042897;28;20985;-66
2023/04/05 11:18:04;;;;;;;4.87;4.10;;;20.00;58.10;;;;;;5023146;28;20460;-68
2023/04/05 11:20:44;;;;;;;4.73;3.87;;;20.70;55.50;;;;;;5047624;28;20460;-68
2023/04/05 11:23:11;;;;;;;4.67;4.20;;;20.30;54.40;;;;;;5053258;28;20462;-68
2023/04/05 11:25:41;;;;;;;4.93;4.50;;;19.20;55.80;;;;;;5049920;28;20487;-68
2023/04/05 11:28:08;;;;;;;4.33;3.90;;;18.40;55.20;;;;;;5031039;28;20464;-68
2023/04/05 11:30:50;;;;;;;7.00;4.67;;;18.30;54.50;;;;;;5046894;28;20466;-68
2023/04/05 11:33:35;;;;;;;5.60;3.90;;;18.40;55.40;;;;;;5050158;28;20463;-68
2023/04/05 11:36:03;;;;;;;6.07;4.03;;;19.20;55.40;;;;;;5038171;28;20479;-67
2023/04/05 11:38:30;;;;;;;4.80;4.30;;;19.30;54.80;;;;;;5029794;28;20468;-67
2023/04/05 11:41:16;;;;;;;3.80;3.40;;;19.20;53.90;;;;;;5030557;28;20474;-67
2023/04/05 11:43:43;;;;;;;3.93;3.63;;;19.50;57.10;;;;;;5030059;28;20463;-67
2023/04/05 11:46:10;;;;;;;3.97;3.40;;;20.40;59.00;;;;;;5030076;28;20560;-67
2023/04/05 11:48:36;;;;;;;6.07;4.10;;;20.70;53.80;;;;;;5029542;28;20467;-68
2023/04/05 11:51:08;;;;;;;7.60;5.63;;;19.60;57.20;;;;;;5108353;22;20470;-66
2023/04/05 11:53:35;;;;;;;4.37;3.90;;;19.90;56.20;;;;;;5055139;23;20582;-67
2023/04/05 11:56:11;;;;;;;4.17;3.70;;;20.40;55.80;;;;;;5030674;28;21003;-66
2023/04/05 11:58:38;;;;;;;4.90;4.50;;;20.90;57.50;;;;;;5030925;28;20460;-66
2023/04/05 12:01:07;;;;;;;5.17;4.50;;;21.40;55.00;;;;;;5030817;28;20467;-67
2023/04/05 12:03:35;;;;;;;4.67;4.27;;;21.90;54.60;;;;;;5038598;28;20494;-65
2023/04/05 12:06:03;;;;;;;5.30;4.30;;;22.10;54.30;;;;;;5049958;28;21013;-68
2023/04/05 12:08:40;;;;;;;6.23;3.80;;;21.70;55.30;;;;;;5038071;28;20472;-67
2023/04/05 12:11:10;;;;;;;5.50;4.40;;;21.80;54.70;;;;;;5034273;28;20503;-66
2023/04/05 12:13:38;;;;;;;4.33;3.60;;;21.60;54.40;;;;;;5042750;28;20464;-66
2023/04/05 12:16:06;;;;;;;4.47;4.07;;;21.50;53.00;;;;;;5053736;28;21005;-65
2023/04/05 12:18:34;;;;;;;4.07;3.77;;;21.30;55.00;;;;;;5053986;28;20462;-67
2023/04/05 12:21:02;;;;;;;4.40;4.00;;;21.70;56.20;;;;;;5046375;28;20460;-67
2023/04/05 12:23:29;;;;;;;5.03;4.53;;;21.30;51.90;;;;;;5054176;28;20996;-67
2023/04/05 12:25:57;;;;;;;4.50;3.97;;;18.90;51.70;;;;;;5053664;28;20487;-67
2023/04/05 12:28:25;;;;;;;4.60;4.17;;;16.70;56.30;;;;;;5047473;28;20460;-67
2023/04/05 12:30:53;;;;;;;6.23;4.13;;;16.80;55.90;;;;;;5034187;28;20499;-66
2023/04/05 12:33:31;;;;;;;4.37;3.97;;;17.30;54.50;;;;;;5034347;28;20460;-67
2023/04/05 12:35:58;;;;;;;4.07;3.70;;;18.20;55.40;;;;;;5034148;28;20863;-68
2023/04/05 12:38:26;;;;;;;4.30;4.00;;;19.20;54.00;;;;;;5040290;28;20814;-67
2023/04/05 12:40:53;;;;;;;4.17;3.80;;;19.00;54.50;;;;;;5045925;28;20488;-68
2023/04/05 12:43:20;;;;;;;4.57;3.60;;;19.20;54.70;;;;;;5040229;28;20499;-65
2023/04/05 12:45:49;;;;;;;3.73;3.43;;;19.20;52.90;;;;;;5034142;28;20491;-67
2023/04/05 12:48:22;;;;;;;4.33;4.03;;;19.50;54.10;;;;;;5034637;28;20464;-67
2023/04/05 12:50:50;;;;;;;4.20;3.90;;;19.80;53.50;;;;;;5034193;28;20460;-67
2023/04/05 12:53:19;;;;;;;4.40;4.03;;;18.20;54.30;;;;;;5033712;28;20490;-67
2023/04/05 12:55:49;;;;;;;4.33;4.03;;;17.40;54.40;;;;;;5033580;28;20488;-67
2023/04/05 12:58:17;;;;;;;3.97;3.43;;;17.70;55.20;;;;;;5033508;28;20520;-67
2023/04/05 13:00:44;;;;;;;5.70;4.00;;;18.40;53.90;;;;;;5033866;28;20492;-66
2023/04/05 13:03:19;;;;;;;4.37;3.90;;;19.10;54.90;;;;;;5033406;28;20496;-67
2023/04/05 13:05:46;;;;;;;4.70;4.10;;;19.40;56.10;;;;;;5032687;28;20494;-66